sensor_id;sensor_type;location;lat;lon;timestamp;temperature;humidity
77305;DHT22;66364;52.622;7.746;2023-07-31T00:01:17;16.50;99.90
77305;DHT22;66364;52.622;7.746;2023-07-31T00:03:19;16.50;99.90
77305;DHT22;66364;52.622;7.746;2023-07-31T00:05:20;16.40;99.90
77305;DHT22;66364;52.622;7.746;2023-07-31T00:07:20;16.30;99.90
77305;DHT22;66364;52.622;7.746;2023-07-31T00:09:22;16.20;99.90
77305;DHT22;66364;52.622;7.746;2023-07-31T00:11:22;16.20;99.90
77305;DHT22;66364;52.622;7.746;2023-07-31T00:13:24;16.50;99.90
77305;DHT22;66364;52.622;7.746;2023-07-31T00:15:25;16.10;99.90
77305;DHT22;66364;52.622;7.746;2023-07-31T00:17:26;16.20;99.90
77305;DHT22;66364;52.622;7.746;2023-07-31T00:19:27;16.00;99.90
77305;DHT22;66364;52.622;7.746;2023-07-31T00:21:28;15.90;99.90
77305;DHT22;66364;52.622;7.746;2023-07-31T00:23:29;15.90;99.90
77305;DHT22;66364;52.622;7.746;2023-07-31T00:25:30;16.00;99.90
77305;DHT22;66364;52.622;7.746;2023-07-31T00:27:32;15.90;99.90
77305;DHT22;66364;52.622;7.746;2023-07-31T00:29:33;16.00;99.90
77305;DHT22;66364;52.622;7.746;2023-07-31T00:31:34;15.90;99.90
77305;DHT22;66364;52.622;7.746;2023-07-31T00:33:35;15.80;99.90
77305;DHT22;66364;52.622;7.746;2023-07-31T00:35:36;15.80;99.90
77305;DHT22;66364;52.622;7.746;2023-07-31T00:37:37;15.70;99.90
77305;DHT22;66364;52.622;7.746;2023-07-31T00:39:38;15.70;99.90
77305;DHT22;66364;52.622;7.746;2023-07-31T00:41:39;15.60;99.90
77305;DHT22;66364;52.622;7.746;2023-07-31T00:43:40;15.50;99.90
77305;DHT22;66364;52.622;7.746;2023-07-31T00:45:41;15.40;99.90
77305;DHT22;66364;52.622;7.746;2023-07-31T00:47:42;15.60;99.90
77305;DHT22;66364;52.622;7.746;2023-07-31T00:49:43;15.90;99.90
77305;DHT22;66364;52.622;7.746;2023-07-31T00:51:44;15.30;99.90
77305;DHT22;66364;52.622;7.746;2023-07-31T00:53:47;15.40;99.90
77305;DHT22;66364;52.622;7.746;2023-07-31T00:55:48;15.50;99.90
77305;DHT22;66364;52.622;7.746;2023-07-31T00:57:49;15.50;99.90
77305;DHT22;66364;52.622;7.746;2023-07-31T00:59:50;15.50;99.90
77305;DHT22;66364;52.622;7.746;2023-07-31T01:01:51;15.90;99.90
77305;DHT22;66364;52.622;7.746;2023-07-31T01:03:52;15.70;99.90
77305;DHT22;66364;52.622;7.746;2023-07-31T01:06:06;15.50;99.90
77305;DHT22;66364;52.622;7.746;2023-07-31T01:08:18;15.60;99.90
77305;DHT22;66364;52.622;7.746;2023-07-31T01:10:21;15.30;99.90
77305;DHT22;66364;52.622;7.746;2023-07-31T01:12:24;15.40;99.90
77305;DHT22;66364;52.622;7.746;2023-07-31T01:14:26;15.40;99.90
77305;DHT22;66364;52.622;7.746;2023-07-31T01:16:28;15.40;99.90
77305;DHT22;66364;52.622;7.746;2023-07-31T01:18:29;15.30;99.90
77305;DHT22;66364;52.622;7.746;2023-07-31T01:20:30;15.50;99.90
77305;DHT22;66364;52.622;7.746;2023-07-31T01:23:09;15.50;99.90
77305;DHT22;66364;52.622;7.746;2023-07-31T01:27:39;15.30;99.90
77305;DHT22;66364;52.622;7.746;2023-07-31T01:31:48;15.40;99.90
77305;DHT22;66364;52.622;7.746;2023-07-31T01:33:52;15.50;99.90
77305;DHT22;66364;52.622;7.746;2023-07-31T01:35:55;15.30;99.90
77305;DHT22;66364;52.622;7.746;2023-07-31T01:37:56;15.50;99.90
77305;DHT22;66364;52.622;7.746;2023-07-31T01:39:57;15.50;99.90
77305;DHT22;66364;52.622;7.746;2023-07-31T01:41:59;15.30;99.90
77305;DHT22;66364;52.622;7.746;2023-07-31T01:44:00;15.50;99.90
77305;DHT22;66364;52.622;7.746;2023-07-31T01:46:01;15.20;99.90
77305;DHT22;66364;52.622;7.746;2023-07-31T01:48:02;15.20;99.90
77305;DHT22;66364;52.622;7.746;2023-07-31T01:50:03;15.40;99.90
77305;DHT22;66364;52.622;7.746;2023-07-31T01:52:05;15.10;99.90
77305;DHT22;66364;52.622;7.746;2023-07-31T01:54:06;15.20;99.90
77305;DHT22;66364;52.622;7.746;2023-07-31T01:56:07;15.20;99.90
77305;DHT22;66364;52.622;7.746;2023-07-31T01:58:09;15.20;99.90
77305;DHT22;66364;52.622;7.746;2023-07-31T02:00:10;15.20;99.90
77305;DHT22;66364;52.622;7.746;2023-07-31T02:02:11;15.20;99.90
77305;DHT22;66364;52.622;7.746;2023-07-31T02:04:12;15.20;99.90
77305;DHT22;66364;52.622;7.746;2023-07-31T02:06:13;15.20;99.90
77305;DHT22;66364;52.622;7.746;2023-07-31T02:08:15;15.20;99.90
77305;DHT22;66364;52.622;7.746;2023-07-31T02:10:16;15.20;99.90
77305;DHT22;66364;52.622;7.746;2023-07-31T02:12:17;15.40;99.90
77305;DHT22;66364;52.622;7.746;2023-07-31T02:14:18;15.30;99.90
77305;DHT22;66364;52.622;7.746;2023-07-31T02:16:19;15.20;99.90
77305;DHT22;66364;52.622;7.746;2023-07-31T02:18:20;15.20;99.90
77305;DHT22;66364;52.622;7.746;2023-07-31T02:20:22;15.20;99.90
77305;DHT22;66364;52.622;7.746;2023-07-31T02:22:24;15.20;99.90
77305;DHT22;66364;52.622;7.746;2023-07-31T02:24:25;15.30;99.90
77305;DHT22;66364;52.622;7.746;2023-07-31T02:26:27;15.00;99.90
77305;DHT22;66364;52.622;7.746;2023-07-31T02:28:29;15.10;99.90
77305;DHT22;66364;52.622;7.746;2023-07-31T02:30:30;15.20;99.90
77305;DHT22;66364;52.622;7.746;2023-07-31T02:32:32;15.00;99.90
77305;DHT22;66364;52.622;7.746;2023-07-31T02:34:35;14.80;99.90
77305;DHT22;66364;52.622;7.746;2023-07-31T02:36:36;15.10;99.90
77305;DHT22;66364;52.622;7.746;2023-07-31T02:38:39;15.00;99.90
77305;DHT22;66364;52.622;7.746;2023-07-31T02:40:41;14.70;99.90
77305;DHT22;66364;52.622;7.746;2023-07-31T02:42:43;15.00;99.90
77305;DHT22;66364;52.622;7.746;2023-07-31T02:44:46;15.00;99.90
77305;DHT22;66364;52.622;7.746;2023-07-31T02:46:49;15.10;99.90
77305;DHT22;66364;52.622;7.746;2023-07-31T02:48:52;15.10;99.90
77305;DHT22;66364;52.622;7.746;2023-07-31T02:50:54;14.90;99.90
77305;DHT22;66364;52.622;7.746;2023-07-31T02:52:55;14.80;99.90
77305;DHT22;66364;52.622;7.746;2023-07-31T02:54:57;14.70;99.90
77305;DHT22;66364;52.622;7.746;2023-07-31T02:56:58;15.00;99.90
77305;DHT22;66364;52.622;7.746;2023-07-31T02:59:00;15.10;99.90
77305;DHT22;66364;52.622;7.746;2023-07-31T03:01:02;15.10;99.90
77305;DHT22;66364;52.622;7.746;2023-07-31T03:03:05;15.10;99.90
77305;DHT22;66364;52.622;7.746;2023-07-31T03:05:08;15.00;99.90
77305;DHT22;66364;52.622;7.746;2023-07-31T03:07:09;15.00;99.90
77305;DHT22;66364;52.622;7.746;2023-07-31T03:09:10;15.10;99.90
77305;DHT22;66364;52.622;7.746;2023-07-31T03:11:11;15.10;99.90
77305;DHT22;66364;52.622;7.746;2023-07-31T03:13:14;15.20;99.90
77305;DHT22;66364;52.622;7.746;2023-07-31T03:15:16;15.50;99.90
77305;DHT22;66364;52.622;7.746;2023-07-31T03:17:18;15.30;99.90
77305;DHT22;66364;52.622;7.746;2023-07-31T03:19:20;15.10;99.90
77305;DHT22;66364;52.622;7.746;2023-07-31T03:21:21;15.10;99.90
77305;DHT22;66364;52.622;7.746;2023-07-31T03:23:24;14.80;99.90
77305;DHT22;66364;52.622;7.746;2023-07-31T03:25:27;15.10;99.90
77305;DHT22;66364;52.622;7.746;2023-07-31T03:27:29;15.10;99.90
77305;DHT22;66364;52.622;7.746;2023-07-31T03:29:32;15.10;99.90
77305;DHT22;66364;52.622;7.746;2023-07-31T03:31:35;15.20;99.90
77305;DHT22;66364;52.622;7.746;2023-07-31T03:33:37;15.20;99.90
77305;DHT22;66364;52.622;7.746;2023-07-31T03:35:40;15.20;99.90
77305;DHT22;66364;52.622;7.746;2023-07-31T03:37:42;15.10;99.90
77305;DHT22;66364;52.622;7.746;2023-07-31T03:39:45;15.10;99.90
77305;DHT22;66364;52.622;7.746;2023-07-31T03:41:48;15.20;99.90
77305;DHT22;66364;52.622;7.746;2023-07-31T03:43:51;15.20;99.90
77305;DHT22;66364;52.622;7.746;2023-07-31T03:45:54;15.20;99.90
77305;DHT22;66364;52.622;7.746;2023-07-31T03:47:56;15.40;99.90
77305;DHT22;66364;52.622;7.746;2023-07-31T03:49:58;15.20;99.90
77305;DHT22;66364;52.622;7.746;2023-07-31T03:52:03;15.20;99.90
77305;DHT22;66364;52.622;7.746;2023-07-31T03:54:06;15.30;99.90
77305;DHT22;66364;52.622;7.746;2023-07-31T03:56:09;15.30;99.90
77305;DHT22;66364;52.622;7.746;2023-07-31T03:58:11;15.30;99.90
77305;DHT22;66364;52.622;7.746;2023-07-31T04:00:13;15.40;99.90
77305;DHT22;66364;52.622;7.746;2023-07-31T04:02:14;15.40;99.90
77305;DHT22;66364;52.622;7.746;2023-07-31T04:04:15;15.40;99.90
77305;DHT22;66364;52.622;7.746;2023-07-31T04:06:16;15.30;99.90
77305;DHT22;66364;52.622;7.746;2023-07-31T04:08:17;15.50;99.90
77305;DHT22;66364;52.622;7.746;2023-07-31T04:10:18;15.30;99.90
77305;DHT22;66364;52.622;7.746;2023-07-31T04:12:20;15.80;99.90
77305;DHT22;66364;52.622;7.746;2023-07-31T04:14:21;15.70;99.90
77305;DHT22;66364;52.622;7.746;2023-07-31T04:16:21;15.80;99.90
77305;DHT22;66364;52.622;7.746;2023-07-31T04:18:24;15.80;99.90
77305;DHT22;66364;52.622;7.746;2023-07-31T04:20:26;15.50;99.90
77305;DHT22;66364;52.622;7.746;2023-07-31T04:22:28;15.60;99.90
77305;DHT22;66364;52.622;7.746;2023-07-31T04:24:29;15.40;99.90
77305;DHT22;66364;52.622;7.746;2023-07-31T04:26:30;15.50;99.90
77305;DHT22;66364;52.622;7.746;2023-07-31T04:28:31;15.60;99.90
77305;DHT22;66364;52.622;7.746;2023-07-31T04:30:32;15.60;99.90
77305;DHT22;66364;52.622;7.746;2023-07-31T04:32:33;15.60;99.90
77305;DHT22;66364;52.622;7.746;2023-07-31T04:34:36;15.60;99.90
77305;DHT22;66364;52.622;7.746;2023-07-31T04:36:38;15.60;99.90
77305;DHT22;66364;52.622;7.746;2023-07-31T04:38:38;15.60;99.90
77305;DHT22;66364;52.622;7.746;2023-07-31T04:40:39;15.60;99.90
77305;DHT22;66364;52.622;7.746;2023-07-31T04:42:40;15.80;99.90
77305;DHT22;66364;52.622;7.746;2023-07-31T04:44:41;15.80;99.90
77305;DHT22;66364;52.622;7.746;2023-07-31T04:46:42;15.80;99.90
77305;DHT22;66364;52.622;7.746;2023-07-31T04:48:43;15.60;99.90
77305;DHT22;66364;52.622;7.746;2023-07-31T04:50:44;15.60;99.90
77305;DHT22;66364;52.622;7.746;2023-07-31T04:52:45;15.80;99.90
77305;DHT22;66364;52.622;7.746;2023-07-31T04:54:46;16.00;99.90
77305;DHT22;66364;52.622;7.746;2023-07-31T04:56:47;15.70;99.90
77305;DHT22;66364;52.622;7.746;2023-07-31T04:58:48;15.60;99.90
77305;DHT22;66364;52.622;7.746;2023-07-31T05:00:49;15.70;99.90
77305;DHT22;66364;52.622;7.746;2023-07-31T05:02:50;15.80;99.90
77305;DHT22;66364;52.622;7.746;2023-07-31T05:04:51;15.80;99.90
77305;DHT22;66364;52.622;7.746;2023-07-31T05:06:52;15.80;99.90
77305;DHT22;66364;52.622;7.746;2023-07-31T05:08:54;15.80;99.90
77305;DHT22;66364;52.622;7.746;2023-07-31T05:10:55;15.80;99.90
77305;DHT22;66364;52.622;7.746;2023-07-31T05:12:56;15.80;99.90
77305;DHT22;66364;52.622;7.746;2023-07-31T05:14:58;15.80;99.90
77305;DHT22;66364;52.622;7.746;2023-07-31T05:16:59;15.70;99.90
77305;DHT22;66364;52.622;7.746;2023-07-31T05:19:01;15.60;99.90
77305;DHT22;66364;52.622;7.746;2023-07-31T05:21:02;15.80;99.90
77305;DHT22;66364;52.622;7.746;2023-07-31T05:23:06;15.90;99.90
77305;DHT22;66364;52.622;7.746;2023-07-31T05:25:08;16.00;99.90
77305;DHT22;66364;52.622;7.746;2023-07-31T05:27:09;15.90;99.90
77305;DHT22;66364;52.622;7.746;2023-07-31T05:29:09;15.90;99.90
77305;DHT22;66364;52.622;7.746;2023-07-31T05:31:10;15.80;99.90
77305;DHT22;66364;52.622;7.746;2023-07-31T05:33:11;15.80;99.90
77305;DHT22;66364;52.622;7.746;2023-07-31T05:35:12;15.80;99.90
77305;DHT22;66364;52.622;7.746;2023-07-31T05:37:13;15.80;99.90
77305;DHT22;66364;52.622;7.746;2023-07-31T05:39:15;15.80;99.90
77305;DHT22;66364;52.622;7.746;2023-07-31T05:41:16;15.90;99.90
77305;DHT22;66364;52.622;7.746;2023-07-31T05:43:17;16.30;99.90
77305;DHT22;66364;52.622;7.746;2023-07-31T05:45:18;15.90;99.90
77305;DHT22;66364;52.622;7.746;2023-07-31T05:47:19;16.20;99.90
77305;DHT22;66364;52.622;7.746;2023-07-31T05:49:21;16.00;99.90
77305;DHT22;66364;52.622;7.746;2023-07-31T05:51:22;16.00;99.90
77305;DHT22;66364;52.622;7.746;2023-07-31T05:53:23;15.80;99.90
77305;DHT22;66364;52.622;7.746;2023-07-31T05:55:25;16.10;99.90
77305;DHT22;66364;52.622;7.746;2023-07-31T05:57:26;16.00;99.90
77305;DHT22;66364;52.622;7.746;2023-07-31T05:59:27;16.00;99.90
77305;DHT22;66364;52.622;7.746;2023-07-31T06:01:28;16.00;99.90
77305;DHT22;66364;52.622;7.746;2023-07-31T06:03:29;16.00;99.90
77305;DHT22;66364;52.622;7.746;2023-07-31T06:05:30;16.00;99.90
77305;DHT22;66364;52.622;7.746;2023-07-31T06:07:32;15.90;99.90
77305;DHT22;66364;52.622;7.746;2023-07-31T06:09:33;16.00;99.90
77305;DHT22;66364;52.622;7.746;2023-07-31T06:11:35;16.00;99.90
77305;DHT22;66364;52.622;7.746;2023-07-31T06:13:36;16.40;99.90
77305;DHT22;66364;52.622;7.746;2023-07-31T06:15:37;16.00;99.90
77305;DHT22;66364;52.622;7.746;2023-07-31T06:17:38;16.10;99.90
77305;DHT22;66364;52.622;7.746;2023-07-31T06:19:39;16.40;99.90
77305;DHT22;66364;52.622;7.746;2023-07-31T06:21:40;16.20;99.90
77305;DHT22;66364;52.622;7.746;2023-07-31T06:23:41;16.10;99.90
77305;DHT22;66364;52.622;7.746;2023-07-31T06:25:42;16.40;99.90
77305;DHT22;66364;52.622;7.746;2023-07-31T06:27:43;16.00;99.90
77305;DHT22;66364;52.622;7.746;2023-07-31T06:29:44;16.40;99.90
77305;DHT22;66364;52.622;7.746;2023-07-31T06:31:45;16.20;99.90
77305;DHT22;66364;52.622;7.746;2023-07-31T06:33:47;16.30;99.90
77305;DHT22;66364;52.622;7.746;2023-07-31T06:35:48;15.90;99.90
77305;DHT22;66364;52.622;7.746;2023-07-31T06:37:49;16.10;99.90
77305;DHT22;66364;52.622;7.746;2023-07-31T06:39:50;16.00;99.90
77305;DHT22;66364;52.622;7.746;2023-07-31T06:41:51;16.10;99.90
77305;DHT22;66364;52.622;7.746;2023-07-31T06:43:52;16.20;99.90
77305;DHT22;66364;52.622;7.746;2023-07-31T06:45:53;16.20;99.90
77305;DHT22;66364;52.622;7.746;2023-07-31T06:47:54;16.20;99.90
77305;DHT22;66364;52.622;7.746;2023-07-31T06:49:56;16.30;99.90
77305;DHT22;66364;52.622;7.746;2023-07-31T06:51:56;16.30;99.90
77305;DHT22;66364;52.622;7.746;2023-07-31T06:53:58;16.40;99.90
77305;DHT22;66364;52.622;7.746;2023-07-31T06:55:59;16.30;99.90
77305;DHT22;66364;52.622;7.746;2023-07-31T06:58:00;16.30;99.90
77305;DHT22;66364;52.622;7.746;2023-07-31T07:00:01;16.50;99.90
77305;DHT22;66364;52.622;7.746;2023-07-31T07:02:02;16.30;99.90
77305;DHT22;66364;52.622;7.746;2023-07-31T07:04:03;16.50;99.90
77305;DHT22;66364;52.622;7.746;2023-07-31T07:06:05;16.30;99.90
77305;DHT22;66364;52.622;7.746;2023-07-31T07:08:07;16.30;99.90
77305;DHT22;66364;52.622;7.746;2023-07-31T07:10:10;16.40;99.90
77305;DHT22;66364;52.622;7.746;2023-07-31T07:12:10;16.40;99.90
77305;DHT22;66364;52.622;7.746;2023-07-31T07:14:11;16.20;99.90
77305;DHT22;66364;52.622;7.746;2023-07-31T07:16:12;16.20;99.90
77305;DHT22;66364;52.622;7.746;2023-07-31T07:18:13;16.10;99.90
77305;DHT22;66364;52.622;7.746;2023-07-31T07:20:14;16.20;99.90
77305;DHT22;66364;52.622;7.746;2023-07-31T07:22:15;16.40;99.90
77305;DHT22;66364;52.622;7.746;2023-07-31T07:24:16;16.20;99.90
77305;DHT22;66364;52.622;7.746;2023-07-31T07:26:18;16.20;99.90
77305;DHT22;66364;52.622;7.746;2023-07-31T07:28:19;16.20;99.90
77305;DHT22;66364;52.622;7.746;2023-07-31T07:30:20;16.20;99.90
77305;DHT22;66364;52.622;7.746;2023-07-31T07:32:21;16.10;99.90
77305;DHT22;66364;52.622;7.746;2023-07-31T07:34:25;16.40;99.90
77305;DHT22;66364;52.622;7.746;2023-07-31T07:36:27;16.20;99.90
77305;DHT22;66364;52.622;7.746;2023-07-31T07:38:29;16.40;99.90
77305;DHT22;66364;52.622;7.746;2023-07-31T07:40:29;16.50;99.90
77305;DHT22;66364;52.622;7.746;2023-07-31T07:42:31;16.50;99.90
77305;DHT22;66364;52.622;7.746;2023-07-31T07:44:32;16.30;99.90
77305;DHT22;66364;52.622;7.746;2023-07-31T07:46:33;16.80;99.90
77305;DHT22;66364;52.622;7.746;2023-07-31T07:48:34;16.30;99.90
77305;DHT22;66364;52.622;7.746;2023-07-31T07:50:35;16.50;99.90
77305;DHT22;66364;52.622;7.746;2023-07-31T07:52:36;16.60;99.90
77305;DHT22;66364;52.622;7.746;2023-07-31T07:54:36;16.50;99.90
77305;DHT22;66364;52.622;7.746;2023-07-31T07:56:38;16.50;99.90
77305;DHT22;66364;52.622;7.746;2023-07-31T07:58:39;16.50;99.90
77305;DHT22;66364;52.622;7.746;2023-07-31T08:00:40;16.70;99.90
77305;DHT22;66364;52.622;7.746;2023-07-31T08:02:41;16.40;99.90
77305;DHT22;66364;52.622;7.746;2023-07-31T08:04:41;16.60;99.90
77305;DHT22;66364;52.622;7.746;2023-07-31T08:06:42;16.90;99.90
77305;DHT22;66364;52.622;7.746;2023-07-31T08:08:44;16.50;99.90
77305;DHT22;66364;52.622;7.746;2023-07-31T08:10:45;16.70;99.90
77305;DHT22;66364;52.622;7.746;2023-07-31T08:12:46;16.70;99.90
77305;DHT22;66364;52.622;7.746;2023-07-31T08:14:47;16.90;99.90
77305;DHT22;66364;52.622;7.746;2023-07-31T08:16:48;16.90;99.90
77305;DHT22;66364;52.622;7.746;2023-07-31T08:18:49;16.80;99.90
77305;DHT22;66364;52.622;7.746;2023-07-31T08:20:50;16.80;99.90
77305;DHT22;66364;52.622;7.746;2023-07-31T08:22:50;16.70;99.90
77305;DHT22;66364;52.622;7.746;2023-07-31T08:24:51;16.70;99.90
77305;DHT22;66364;52.622;7.746;2023-07-31T08:26:52;16.90;99.90
77305;DHT22;66364;52.622;7.746;2023-07-31T08:28:53;16.90;99.90
77305;DHT22;66364;52.622;7.746;2023-07-31T08:30:54;16.70;99.90
77305;DHT22;66364;52.622;7.746;2023-07-31T08:32:56;16.90;99.90
77305;DHT22;66364;52.622;7.746;2023-07-31T08:34:57;16.60;99.90
77305;DHT22;66364;52.622;7.746;2023-07-31T08:36:59;16.60;99.90
77305;DHT22;66364;52.622;7.746;2023-07-31T08:39:02;16.70;99.90
77305;DHT22;66364;52.622;7.746;2023-07-31T08:41:04;16.70;99.90
77305;DHT22;66364;52.622;7.746;2023-07-31T08:43:05;17.00;99.90
77305;DHT22;66364;52.622;7.746;2023-07-31T08:45:08;16.80;99.90
77305;DHT22;66364;52.622;7.746;2023-07-31T08:47:09;17.10;99.90
77305;DHT22;66364;52.622;7.746;2023-07-31T08:49:11;16.90;99.90
77305;DHT22;66364;52.622;7.746;2023-07-31T08:51:14;17.00;99.90
77305;DHT22;66364;52.622;7.746;2023-07-31T08:53:15;16.90;99.90
77305;DHT22;66364;52.622;7.746;2023-07-31T08:55:16;17.20;99.90
77305;DHT22;66364;52.622;7.746;2023-07-31T08:57:17;17.30;99.90
77305;DHT22;66364;52.622;7.746;2023-07-31T08:59:19;17.20;99.90
77305;DHT22;66364;52.622;7.746;2023-07-31T09:01:21;17.00;99.90
77305;DHT22;66364;52.622;7.746;2023-07-31T09:03:25;17.00;99.90
77305;DHT22;66364;52.622;7.746;2023-07-31T09:05:26;17.10;99.90
77305;DHT22;66364;52.622;7.746;2023-07-31T09:07:29;17.00;99.90
77305;DHT22;66364;52.622;7.746;2023-07-31T09:09:32;17.00;99.90
77305;DHT22;66364;52.622;7.746;2023-07-31T09:11:33;16.90;99.90
77305;DHT22;66364;52.622;7.746;2023-07-31T09:13:34;16.80;99.90
77305;DHT22;66364;52.622;7.746;2023-07-31T09:15:36;16.90;99.90
77305;DHT22;66364;52.622;7.746;2023-07-31T09:17:37;17.00;99.90
77305;DHT22;66364;52.622;7.746;2023-07-31T09:19:39;16.80;99.90
77305;DHT22;66364;52.622;7.746;2023-07-31T09:21:49;16.80;99.90
77305;DHT22;66364;52.622;7.746;2023-07-31T09:23:50;16.80;99.90
77305;DHT22;66364;52.622;7.746;2023-07-31T09:25:51;16.80;99.90
77305;DHT22;66364;52.622;7.746;2023-07-31T09:27:57;16.80;99.90
77305;DHT22;66364;52.622;7.746;2023-07-31T09:29:59;17.00;99.90
77305;DHT22;66364;52.622;7.746;2023-07-31T09:32:00;17.10;99.90
77305;DHT22;66364;52.622;7.746;2023-07-31T09:34:01;17.10;99.90
77305;DHT22;66364;52.622;7.746;2023-07-31T09:36:04;17.00;99.90
77305;DHT22;66364;52.622;7.746;2023-07-31T09:38:10;17.20;99.90
77305;DHT22;66364;52.622;7.746;2023-07-31T09:40:16;17.10;99.90
77305;DHT22;66364;52.622;7.746;2023-07-31T09:42:26;17.00;99.90
77305;DHT22;66364;52.622;7.746;2023-07-31T09:44:38;17.40;99.90
77305;DHT22;66364;52.622;7.746;2023-07-31T09:46:39;16.90;99.90
77305;DHT22;66364;52.622;7.746;2023-07-31T09:48:41;17.20;99.90
77305;DHT22;66364;52.622;7.746;2023-07-31T09:50:45;17.30;99.90
77305;DHT22;66364;52.622;7.746;2023-07-31T09:52:45;17.20;99.90
77305;DHT22;66364;52.622;7.746;2023-07-31T09:54:47;17.40;99.90
77305;DHT22;66364;52.622;7.746;2023-07-31T09:56:48;17.40;99.90
77305;DHT22;66364;52.622;7.746;2023-07-31T09:58:50;17.40;99.90
77305;DHT22;66364;52.622;7.746;2023-07-31T10:00:51;17.40;99.90
77305;DHT22;66364;52.622;7.746;2023-07-31T10:02:54;17.50;99.90
77305;DHT22;66364;52.622;7.746;2023-07-31T10:04:57;17.40;99.90
77305;DHT22;66364;52.622;7.746;2023-07-31T10:07:01;17.40;99.90
77305;DHT22;66364;52.622;7.746;2023-07-31T10:09:08;17.30;99.90
77305;DHT22;66364;52.622;7.746;2023-07-31T10:11:09;17.40;99.90
77305;DHT22;66364;52.622;7.746;2023-07-31T10:13:11;17.60;99.90
77305;DHT22;66364;52.622;7.746;2023-07-31T10:15:12;17.50;99.90
77305;DHT22;66364;52.622;7.746;2023-07-31T10:17:17;17.40;99.90
77305;DHT22;66364;52.622;7.746;2023-07-31T10:19:19;17.50;99.90
77305;DHT22;66364;52.622;7.746;2023-07-31T10:21:20;17.50;99.90
77305;DHT22;66364;52.622;7.746;2023-07-31T10:23:23;17.60;99.90
77305;DHT22;66364;52.622;7.746;2023-07-31T10:25:26;17.40;99.90
77305;DHT22;66364;52.622;7.746;2023-07-31T10:27:27;17.30;99.90
77305;DHT22;66364;52.622;7.746;2023-07-31T10:29:29;17.50;99.90
77305;DHT22;66364;52.622;7.746;2023-07-31T10:31:31;17.30;99.90
77305;DHT22;66364;52.622;7.746;2023-07-31T10:33:32;17.40;99.90
77305;DHT22;66364;52.622;7.746;2023-07-31T10:35:33;17.60;99.90
77305;DHT22;66364;52.622;7.746;2023-07-31T10:37:39;17.50;99.90
77305;DHT22;66364;52.622;7.746;2023-07-31T10:39:41;17.70;99.90
77305;DHT22;66364;52.622;7.746;2023-07-31T10:41:42;17.80;99.90
77305;DHT22;66364;52.622;7.746;2023-07-31T10:43:46;18.00;99.90
77305;DHT22;66364;52.622;7.746;2023-07-31T10:45:48;17.70;99.90
77305;DHT22;66364;52.622;7.746;2023-07-31T10:47:57;17.70;99.90
77305;DHT22;66364;52.622;7.746;2023-07-31T10:50:12;17.60;99.90
77305;DHT22;66364;52.622;7.746;2023-07-31T10:52:13;17.70;99.90
77305;DHT22;66364;52.622;7.746;2023-07-31T10:54:16;17.50;99.90
77305;DHT22;66364;52.622;7.746;2023-07-31T10:56:17;17.70;99.90
77305;DHT22;66364;52.622;7.746;2023-07-31T10:58:20;18.10;99.90
77305;DHT22;66364;52.622;7.746;2023-07-31T11:00:29;17.60;99.90
77305;DHT22;66364;52.622;7.746;2023-07-31T11:02:32;18.00;99.90
77305;DHT22;66364;52.622;7.746;2023-07-31T11:04:34;18.00;99.90
77305;DHT22;66364;52.622;7.746;2023-07-31T11:06:36;18.00;99.90
77305;DHT22;66364;52.622;7.746;2023-07-31T11:08:48;18.00;99.90
77305;DHT22;66364;52.622;7.746;2023-07-31T11:13:07;18.00;99.90
77305;DHT22;66364;52.622;7.746;2023-07-31T11:15:09;18.30;99.90
77305;DHT22;66364;52.622;7.746;2023-07-31T11:17:10;18.00;99.90
77305;DHT22;66364;52.622;7.746;2023-07-31T11:19:11;18.00;99.90
77305;DHT22;66364;52.622;7.746;2023-07-31T11:21:17;18.00;99.90
77305;DHT22;66364;52.622;7.746;2023-07-31T11:23:19;17.90;99.90
77305;DHT22;66364;52.622;7.746;2023-07-31T11:25:22;18.00;99.90
77305;DHT22;66364;52.622;7.746;2023-07-31T11:27:27;18.00;99.90
77305;DHT22;66364;52.622;7.746;2023-07-31T11:29:27;18.00;99.90
77305;DHT22;66364;52.622;7.746;2023-07-31T11:31:28;18.00;99.90
77305;DHT22;66364;52.622;7.746;2023-07-31T11:33:29;18.20;99.90
77305;DHT22;66364;52.622;7.746;2023-07-31T11:35:35;17.90;99.90
77305;DHT22;66364;52.622;7.746;2023-07-31T11:37:43;18.00;99.90
77305;DHT22;66364;52.622;7.746;2023-07-31T11:39:59;18.00;99.90
77305;DHT22;66364;52.622;7.746;2023-07-31T11:42:01;17.90;99.90
77305;DHT22;66364;52.622;7.746;2023-07-31T11:44:03;18.00;99.90
77305;DHT22;66364;52.622;7.746;2023-07-31T11:46:05;18.10;99.90
77305;DHT22;66364;52.622;7.746;2023-07-31T11:48:06;17.90;99.90
77305;DHT22;66364;52.622;7.746;2023-07-31T11:50:10;18.20;99.90
77305;DHT22;66364;52.622;7.746;2023-07-31T11:52:12;18.20;99.90
77305;DHT22;66364;52.622;7.746;2023-07-31T11:54:13;18.50;99.90
77305;DHT22;66364;52.622;7.746;2023-07-31T11:56:17;18.20;99.90
77305;DHT22;66364;52.622;7.746;2023-07-31T11:58:19;18.10;99.90
77305;DHT22;66364;52.622;7.746;2023-07-31T12:00:21;18.00;99.90
77305;DHT22;66364;52.622;7.746;2023-07-31T12:02:22;18.10;99.90
77305;DHT22;66364;52.622;7.746;2023-07-31T12:04:24;18.10;99.90
77305;DHT22;66364;52.622;7.746;2023-07-31T12:06:35;18.30;99.90
77305;DHT22;66364;52.622;7.746;2023-07-31T12:08:36;18.30;99.90
77305;DHT22;66364;52.622;7.746;2023-07-31T12:10:38;18.40;99.90
77305;DHT22;66364;52.622;7.746;2023-07-31T12:12:39;18.40;99.90
77305;DHT22;66364;52.622;7.746;2023-07-31T12:14:41;18.30;99.90
77305;DHT22;66364;52.622;7.746;2023-07-31T12:16:42;18.30;99.90
77305;DHT22;66364;52.622;7.746;2023-07-31T12:18:43;18.40;99.90
77305;DHT22;66364;52.622;7.746;2023-07-31T12:20:46;18.30;99.90
77305;DHT22;66364;52.622;7.746;2023-07-31T12:22:48;18.20;99.90
77305;DHT22;66364;52.622;7.746;2023-07-31T12:24:49;18.40;99.90
77305;DHT22;66364;52.622;7.746;2023-07-31T12:26:50;18.50;99.90
77305;DHT22;66364;52.622;7.746;2023-07-31T12:28:54;18.50;99.90
77305;DHT22;66364;52.622;7.746;2023-07-31T12:30:59;18.40;99.90
77305;DHT22;66364;52.622;7.746;2023-07-31T12:33:05;18.60;99.90
77305;DHT22;66364;52.622;7.746;2023-07-31T12:35:07;18.70;99.90
77305;DHT22;66364;52.622;7.746;2023-07-31T12:37:09;18.60;99.90
77305;DHT22;66364;52.622;7.746;2023-07-31T12:39:10;18.90;99.90
77305;DHT22;66364;52.622;7.746;2023-07-31T12:41:12;18.80;99.90
77305;DHT22;66364;52.622;7.746;2023-07-31T12:43:13;18.80;99.90
77305;DHT22;66364;52.622;7.746;2023-07-31T12:45:14;18.70;99.90
77305;DHT22;66364;52.622;7.746;2023-07-31T12:47:15;18.60;99.90
77305;DHT22;66364;52.622;7.746;2023-07-31T12:49:16;18.60;99.90
77305;DHT22;66364;52.622;7.746;2023-07-31T12:51:17;18.70;99.90
77305;DHT22;66364;52.622;7.746;2023-07-31T12:53:18;18.40;99.90
77305;DHT22;66364;52.622;7.746;2023-07-31T12:55:19;18.70;99.90
77305;DHT22;66364;52.622;7.746;2023-07-31T12:57:21;18.60;99.90